createdAt,value
2019-01-10T00:00:27.110Z,1012.63
2019-01-10T00:01:07.740Z,1012.67
2019-01-10T00:01:49.510Z,1012.67
2019-01-10T00:02:29.026Z,1012.68
2019-01-10T00:03:09.588Z,1012.66
2019-01-10T00:03:50.244Z,1012.7
2019-01-10T00:04:30.879Z,1012.64
2019-01-10T00:05:11.494Z,1012.68
2019-01-10T00:05:52.132Z,1012.65
2019-01-10T00:06:32.732Z,1012.64
2019-01-10T00:07:13.338Z,1012.6
2019-01-10T00:07:53.984Z,1012.59
2019-01-10T00:08:34.591Z,1012.59
2019-01-10T00:09:15.222Z,1012.59
2019-01-10T00:09:55.839Z,1012.55
2019-01-10T00:10:36.446Z,1012.54
2019-01-10T00:11:17.054Z,1012.58
2019-01-10T00:11:57.704Z,1012.55
2019-01-10T00:12:39.475Z,1012.56
2019-01-10T00:13:18.906Z,1012.6
2019-01-10T00:13:59.524Z,1012.6
2019-01-10T00:14:40.168Z,1012.62
2019-01-10T00:15:20.765Z,1012.64
2019-01-10T00:16:01.401Z,1012.64
2019-01-10T00:16:42.031Z,1012.7
2019-01-10T00:17:22.674Z,1012.75
2019-01-10T00:18:03.306Z,1012.77
2019-01-10T00:18:43.934Z,1012.82
2019-01-10T00:19:24.557Z,1012.8
2019-01-10T00:20:05.182Z,1012.84
2019-01-10T00:20:45.826Z,1012.83
2019-01-10T00:21:26.536Z,1012.81
2019-01-10T00:22:07.160Z,1012.83
2019-01-10T00:22:47.773Z,1012.82
2019-01-10T00:23:28.388Z,1012.82
2019-01-10T00:24:09.003Z,1012.8
2019-01-10T00:24:49.604Z,1012.82
2019-01-10T00:25:30.204Z,1012.82
2019-01-10T00:26:10.816Z,1012.8
2019-01-10T00:26:51.440Z,1012.8
2019-01-10T00:27:32.094Z,1012.79
2019-01-10T00:28:12.722Z,1012.78
2019-01-10T00:28:53.349Z,1012.8
2019-01-10T00:29:34.016Z,1012.77
2019-01-10T00:30:14.642Z,1012.77
2019-01-10T00:30:55.267Z,1012.77
2019-01-10T00:31:35.869Z,1012.79
2019-01-10T00:32:16.478Z,1012.76
2019-01-10T00:32:57.100Z,1012.74
2019-01-10T00:33:37.790Z,1012.76
2019-01-10T00:34:18.452Z,1012.71
2019-01-10T00:34:59.167Z,1012.74
2019-01-10T00:35:39.848Z,1012.74
2019-01-10T00:36:20.456Z,1012.74
2019-01-10T00:37:01.204Z,1012.75
2019-01-10T00:37:41.850Z,1012.78
2019-01-10T00:38:22.487Z,1012.78
2019-01-10T00:39:03.119Z,1012.8
2019-01-10T00:39:43.749Z,1012.82
2019-01-10T00:40:24.446Z,1012.89
2019-01-10T00:41:05.007Z,1012.85
2019-01-10T00:41:45.652Z,1012.85
2019-01-10T00:42:26.332Z,1012.83
2019-01-10T00:43:06.920Z,1012.82
2019-01-10T00:43:47.525Z,1012.86
2019-01-10T00:44:28.138Z,1012.87
2019-01-10T00:45:08.756Z,1012.89
2019-01-10T00:45:49.376Z,1012.89
2019-01-10T00:46:29.986Z,1012.91
2019-01-10T00:47:10.599Z,1012.89
2019-01-10T00:47:51.294Z,1012.88
2019-01-10T00:48:31.929Z,1012.88
2019-01-10T00:49:12.605Z,1012.83
2019-01-10T00:49:53.218Z,1012.83
2019-01-10T00:50:33.906Z,1012.83
2019-01-10T00:51:14.550Z,1012.8
2019-01-10T00:51:55.230Z,1012.79
2019-01-10T00:52:35.927Z,1012.78
2019-01-10T00:53:16.573Z,1012.78
2019-01-10T00:53:57.190Z,1012.79
2019-01-10T00:54:37.854Z,1012.83
2019-01-10T00:55:18.536Z,1012.8
2019-01-10T00:55:59.168Z,1012.81
2019-01-10T00:56:39.772Z,1012.78
2019-01-10T00:57:20.468Z,1012.81
2019-01-10T00:58:01.140Z,1012.83
2019-01-10T00:58:41.828Z,1012.84
2019-01-10T00:59:22.485Z,1012.87
2019-01-10T01:00:03.084Z,1012.81
2019-01-10T01:00:43.773Z,1012.82
2019-01-10T01:01:24.394Z,1012.8
2019-01-10T01:02:05.008Z,1012.86
2019-01-10T01:02:45.703Z,1012.82
2019-01-10T01:03:26.210Z,1012.86
2019-01-10T01:04:06.822Z,1012.83
2019-01-10T01:04:47.414Z,1012.76
2019-01-10T01:05:28.012Z,1012.84
2019-01-10T01:06:08.648Z,1012.78
2019-01-10T01:06:49.245Z,1012.79
2019-01-10T01:07:29.862Z,1012.74
2019-01-10T01:08:10.506Z,1012.76
2019-01-10T01:08:51.128Z,1012.77
2019-01-10T01:09:31.756Z,1012.77
2019-01-10T01:10:12.366Z,1012.81
2019-01-10T01:10:53.053Z,1012.78
2019-01-10T01:11:33.676Z,1012.76
2019-01-10T01:12:14.300Z,1012.76
2019-01-10T01:12:58.455Z,1012.76
2019-01-10T01:13:35.525Z,1012.77
2019-01-10T01:14:16.136Z,1012.76
2019-01-10T01:14:56.802Z,1012.7
2019-01-10T01:15:37.526Z,1012.64
2019-01-10T01:16:18.237Z,1012.67
2019-01-10T01:16:58.967Z,1012.69
2019-01-10T01:17:39.500Z,1012.72
2019-01-10T01:18:20.118Z,1012.77
2019-01-10T01:19:00.762Z,1012.7
2019-01-10T01:19:41.356Z,1012.66
2019-01-10T01:20:21.995Z,1012.66
2019-01-10T01:21:02.730Z,1012.66
2019-01-10T01:21:43.350Z,1012.62
2019-01-10T01:22:23.966Z,1012.54
2019-01-10T01:23:04.624Z,1012.52
2019-01-10T01:23:45.257Z,1012.44
2019-01-10T01:24:25.863Z,1012.42
2019-01-10T01:25:06.514Z,1012.48
2019-01-10T01:25:47.145Z,1012.49
2019-01-10T01:26:27.788Z,1012.44
2019-01-10T01:27:08.435Z,1012.4
2019-01-10T01:27:49.077Z,1012.42
2019-01-10T01:28:29.724Z,1012.41
2019-01-10T01:29:10.368Z,1012.41
2019-01-10T01:29:50.998Z,1012.38
2019-01-10T01:30:31.604Z,1012.39
2019-01-10T01:31:12.224Z,1012.37
2019-01-10T01:31:52.817Z,1012.35
2019-01-10T01:32:33.420Z,1012.37
2019-01-10T01:33:14.019Z,1012.37
2019-01-10T01:33:54.629Z,1012.4
2019-01-10T01:34:35.266Z,1012.56
2019-01-10T01:35:16.115Z,1012.56
2019-01-10T01:35:56.805Z,1012.57
2019-01-10T01:36:37.569Z,1012.54
2019-01-10T01:37:18.361Z,1012.49
2019-01-10T01:37:59.134Z,1012.5
2019-01-10T01:38:39.917Z,1012.55
2019-01-10T01:39:20.698Z,1012.57
2019-01-10T01:40:01.482Z,1012.64
2019-01-10T01:40:42.232Z,1012.55
2019-01-10T01:41:22.987Z,1012.46
2019-01-10T01:42:03.814Z,1012.52
2019-01-10T01:42:44.577Z,1012.51
2019-01-10T01:43:25.317Z,1012.54
2019-01-10T01:44:06.078Z,1012.54
2019-01-10T01:44:46.839Z,1012.54
2019-01-10T01:45:27.620Z,1012.56
2019-01-10T01:46:08.424Z,1012.58
2019-01-10T01:46:49.176Z,1012.58
2019-01-10T01:47:29.928Z,1012.59
2019-01-10T01:48:10.756Z,1012.56
2019-01-10T01:48:51.548Z,1012.54
2019-01-10T01:49:32.356Z,1012.5
2019-01-10T01:50:13.114Z,1012.54
2019-01-10T01:50:53.878Z,1012.55
2019-01-10T01:51:34.638Z,1012.57
2019-01-10T01:52:15.418Z,1012.56
2019-01-10T01:52:56.170Z,1012.5
2019-01-10T01:53:36.931Z,1012.54
2019-01-10T01:54:17.692Z,1012.57
2019-01-10T01:54:58.432Z,1012.61
2019-01-10T01:55:39.195Z,1012.6
2019-01-10T01:56:19.954Z,1012.64
2019-01-10T01:57:00.710Z,1012.64
2019-01-10T01:57:41.501Z,1012.67
2019-01-10T01:58:22.295Z,1012.7
2019-01-10T01:59:03.075Z,1012.74
2019-01-10T01:59:43.791Z,1012.69
2019-01-10T02:00:24.551Z,1012.68
2019-01-10T02:01:05.274Z,1012.64
2019-01-10T02:01:45.897Z,1012.66
2019-01-10T02:02:26.606Z,1012.65
2019-01-10T02:03:07.260Z,1012.64
2019-01-10T02:03:47.824Z,1012.66
2019-01-10T02:04:28.471Z,1012.67
2019-01-10T02:05:09.068Z,1012.67
2019-01-10T02:05:49.674Z,1012.69
2019-01-10T02:06:30.293Z,1012.69
2019-01-10T02:07:10.925Z,1012.7
2019-01-10T02:07:51.579Z,1012.71
2019-01-10T02:08:32.212Z,1012.71
2019-01-10T02:09:12.828Z,1012.77
2019-01-10T02:09:53.424Z,1012.76
2019-01-10T02:10:34.041Z,1012.73
2019-01-10T02:11:14.651Z,1012.73
2019-01-10T02:11:55.332Z,1012.76
2019-01-10T02:12:35.900Z,1012.78
2019-01-10T02:13:17.085Z,1012.77
2019-01-10T02:13:57.119Z,1012.76
2019-01-10T02:14:37.740Z,1012.73
2019-01-10T02:15:18.358Z,1012.75
2019-01-10T02:15:58.958Z,1012.7
2019-01-10T02:16:39.619Z,1012.72
2019-01-10T02:17:20.245Z,1012.74
2019-01-10T02:18:00.858Z,1012.76
2019-01-10T02:18:41.481Z,1012.74
2019-01-10T02:19:22.186Z,1012.72
2019-01-10T02:20:02.717Z,1012.73
2019-01-10T02:20:43.315Z,1012.73
2019-01-10T02:21:23.934Z,1012.77
2019-01-10T02:22:04.538Z,1012.8
2019-01-10T02:22:45.141Z,1012.82
2019-01-10T02:23:25.752Z,1012.83
2019-01-10T02:24:06.362Z,1012.82
2019-01-10T02:24:46.976Z,1012.86
2019-01-10T02:25:27.623Z,1012.81
2019-01-10T02:26:08.229Z,1012.89
2019-01-10T02:26:48.830Z,1012.91
2019-01-10T02:27:29.436Z,1012.96
2019-01-10T02:28:10.049Z,1013
2019-01-10T02:28:50.657Z,1012.97
2019-01-10T02:29:31.269Z,1012.98
2019-01-10T02:30:11.905Z,1013.02
2019-01-10T02:30:52.516Z,1013.02
2019-01-10T02:31:33.117Z,1013.03
2019-01-10T02:32:13.701Z,1013.05
2019-01-10T02:32:54.320Z,1013.05
2019-01-10T02:33:34.942Z,1013.03
2019-01-10T02:34:15.559Z,1012.98
2019-01-10T02:34:56.167Z,1013.01
2019-01-10T02:35:36.789Z,1013.02
2019-01-10T02:36:17.397Z,1013.02
2019-01-10T02:36:58.006Z,1013.03
2019-01-10T02:37:38.641Z,1013.01
2019-01-10T02:38:19.245Z,1012.97
2019-01-10T02:38:59.866Z,1012.94
2019-01-10T02:39:40.475Z,1012.96
2019-01-10T02:40:21.083Z,1012.98
2019-01-10T02:41:02.785Z,1012.98
2019-01-10T02:41:42.332Z,1012.97
2019-01-10T02:42:22.939Z,1012.99
2019-01-10T02:43:03.548Z,1012.99
2019-01-10T02:43:44.177Z,1012.97
2019-01-10T02:44:24.788Z,1013.01
2019-01-10T02:45:05.423Z,1013.03
2019-01-10T02:45:46.024Z,1013.05
2019-01-10T02:46:26.667Z,1013.07
2019-01-10T02:47:07.279Z,1013.09
2019-01-10T02:47:47.878Z,1013.11
2019-01-10T02:48:28.481Z,1013.14
2019-01-10T02:49:09.104Z,1013.08
2019-01-10T02:49:49.727Z,1013.16
2019-01-10T02:50:30.342Z,1013.11
2019-01-10T02:51:10.940Z,1013.16
2019-01-10T02:51:51.563Z,1013.12
2019-01-10T02:52:32.189Z,1013.11
2019-01-10T02:53:12.787Z,1013.13
2019-01-10T02:53:53.383Z,1013.09
2019-01-10T02:54:33.993Z,1013.11
2019-01-10T02:55:14.606Z,1013.15
2019-01-10T02:55:55.247Z,1013.16
2019-01-10T02:56:35.878Z,1013.15
2019-01-10T02:57:16.493Z,1013.13
2019-01-10T02:57:57.096Z,1013.21
2019-01-10T02:58:37.708Z,1013.22
2019-01-10T02:59:18.309Z,1013.2
2019-01-10T02:59:58.910Z,1013.19
2019-01-10T03:00:39.513Z,1013.13
2019-01-10T03:01:20.110Z,1013.13
2019-01-10T03:02:00.743Z,1013.12
2019-01-10T03:02:41.441Z,1013.07
2019-01-10T03:03:22.151Z,1013.1
2019-01-10T03:04:02.791Z,1013.06
2019-01-10T03:04:43.459Z,1013.03
2019-01-10T03:05:24.117Z,1013.05
2019-01-10T03:06:04.759Z,1013.05
2019-01-10T03:06:45.371Z,1013.07
2019-01-10T03:07:26.007Z,1013.06
2019-01-10T03:08:06.613Z,1013.04
2019-01-10T03:08:47.230Z,1013.06
2019-01-10T03:09:27.839Z,1013.06
2019-01-10T03:10:08.437Z,1013.07
2019-01-10T03:10:49.063Z,1013.09
2019-01-10T03:11:29.687Z,1013.06
2019-01-10T03:12:10.294Z,1013.02
2019-01-10T03:12:50.898Z,1013.02
2019-01-10T03:13:36.393Z,1013.01
2019-01-10T03:14:12.128Z,1013.03
2019-01-10T03:14:52.754Z,1013.05
2019-01-10T03:15:33.375Z,1013.06
2019-01-10T03:16:13.974Z,1013.07
2019-01-10T03:16:54.585Z,1013.12
2019-01-10T03:17:35.181Z,1013.09
2019-01-10T03:18:15.773Z,1013.1
2019-01-10T03:18:56.383Z,1013.09
2019-01-10T03:19:37.004Z,1013.13
2019-01-10T03:20:17.617Z,1013.13
2019-01-10T03:20:58.217Z,1013.18
2019-01-10T03:21:38.827Z,1013.19
2019-01-10T03:22:19.447Z,1013.19
2019-01-10T03:23:00.067Z,1013.18
2019-01-10T03:23:40.677Z,1013.16
2019-01-10T03:24:21.281Z,1013.19
2019-01-10T03:25:01.907Z,1013.16
2019-01-10T03:25:42.518Z,1013.15
2019-01-10T03:26:23.163Z,1013.09
2019-01-10T03:27:03.759Z,1013.11
2019-01-10T03:27:44.369Z,1013.1
2019-01-10T03:28:24.997Z,1013.08
2019-01-10T03:29:05.615Z,1013.11
2019-01-10T03:29:46.207Z,1013.11
2019-01-10T03:30:26.926Z,1013.05
2019-01-10T03:31:07.447Z,1013.12
2019-01-10T03:31:48.069Z,1013.1
2019-01-10T03:32:28.687Z,1013.08
2019-01-10T03:33:09.313Z,1013.09
2019-01-10T03:33:49.913Z,1013.08
2019-01-10T03:34:30.541Z,1013.11
2019-01-10T03:35:11.181Z,1013.11
2019-01-10T03:35:51.839Z,1013.15
2019-01-10T03:36:32.437Z,1013.14
2019-01-10T03:37:13.046Z,1013.18
2019-01-10T03:37:53.679Z,1013.2
2019-01-10T03:38:34.291Z,1013.19
2019-01-10T03:39:14.927Z,1013.2
2019-01-10T03:39:55.520Z,1013.21
2019-01-10T03:40:36.157Z,1013.18
2019-01-10T03:41:16.769Z,1013.17
2019-01-10T03:41:57.368Z,1013.15
2019-01-10T03:42:37.989Z,1013.18
2019-01-10T03:43:18.593Z,1013.18
2019-01-10T03:43:59.187Z,1013.12
2019-01-10T03:44:39.799Z,1013.12
2019-01-10T03:45:20.403Z,1013.11
2019-01-10T03:46:01.019Z,1013.14
2019-01-10T03:46:41.633Z,1013.12
2019-01-10T03:47:22.281Z,1013.08
2019-01-10T03:48:02.909Z,1013.08
2019-01-10T03:48:43.515Z,1013.04
2019-01-10T03:49:24.119Z,1013.03
2019-01-10T03:50:04.745Z,1012.99
2019-01-10T03:50:45.351Z,1012.97
2019-01-10T03:51:25.963Z,1012.92
2019-01-10T03:52:06.583Z,1012.92
2019-01-10T03:52:47.185Z,1012.97
2019-01-10T03:53:27.809Z,1012.98
2019-01-10T03:54:08.469Z,1012.97
2019-01-10T03:54:49.091Z,1013.03
2019-01-10T03:55:29.713Z,1013.02
2019-01-10T03:56:10.320Z,1013.01
2019-01-10T03:56:50.965Z,1013.07
2019-01-10T03:57:31.569Z,1013.09
2019-01-10T03:58:12.187Z,1013.02
2019-01-10T03:58:52.789Z,1013.06
2019-01-10T03:59:33.411Z,1013.05
2019-01-10T04:00:14.069Z,1012.99
2019-01-10T04:00:54.669Z,1012.94
2019-01-10T04:01:35.287Z,1012.95
2019-01-10T04:02:15.906Z,1012.94
2019-01-10T04:02:56.523Z,1012.93
2019-01-10T04:03:37.163Z,1012.92
2019-01-10T04:04:17.783Z,1012.96
2019-01-10T04:04:58.401Z,1012.98
2019-01-10T04:05:39.025Z,1012.85
2019-01-10T04:06:19.631Z,1012.92
2019-01-10T04:07:00.237Z,1012.88
2019-01-10T04:07:40.901Z,1012.89
2019-01-10T04:08:21.519Z,1012.94
2019-01-10T04:09:02.133Z,1012.94
2019-01-10T04:09:42.767Z,1012.99
2019-01-10T04:10:23.373Z,1013.02
2019-01-10T04:11:03.993Z,1013.03
2019-01-10T04:11:44.658Z,1013
2019-01-10T04:12:25.297Z,1013.02
2019-01-10T04:13:05.927Z,1013
2019-01-10T04:13:57.015Z,1013.01
2019-01-10T04:14:27.163Z,1013
2019-01-10T04:15:07.767Z,1013.06
2019-01-10T04:15:48.385Z,1013.05
2019-01-10T04:16:29.017Z,1013.04
2019-01-10T04:17:09.625Z,1013.05
2019-01-10T04:17:50.235Z,1013
2019-01-10T04:18:30.839Z,1012.99
2019-01-10T04:19:11.451Z,1012.99
2019-01-10T04:19:52.043Z,1013.05
2019-01-10T04:20:32.670Z,1013.02
2019-01-10T04:21:17.153Z,1013.02
2019-01-10T04:21:53.919Z,1013.06
2019-01-10T04:22:34.557Z,1013.07
2019-01-10T04:23:15.182Z,1013.07
2019-01-10T04:23:55.789Z,1013.08
2019-01-10T04:24:36.445Z,1013.08
2019-01-10T04:25:17.082Z,1013.11
2019-01-10T04:25:57.677Z,1013.08
2019-01-10T04:26:38.277Z,1013.1
2019-01-10T04:27:18.895Z,1013.12
2019-01-10T04:27:59.503Z,1013.11
2019-01-10T04:28:40.127Z,1013.17
2019-01-10T04:29:20.735Z,1013.17
2019-01-10T04:30:01.363Z,1013.17
2019-01-10T04:30:41.975Z,1013.2
2019-01-10T04:31:22.649Z,1013.18
2019-01-10T04:32:03.312Z,1013.21
2019-01-10T04:32:43.939Z,1013.21
2019-01-10T04:33:24.539Z,1013.19
2019-01-10T04:34:05.138Z,1013.19
2019-01-10T04:34:45.759Z,1013.18
2019-01-10T04:35:26.377Z,1013.13
2019-01-10T04:36:07.089Z,1013.18
2019-01-10T04:36:47.687Z,1013.23
2019-01-10T04:37:28.303Z,1013.2
2019-01-10T04:38:08.915Z,1013.24
2019-01-10T04:38:49.515Z,1013.26
2019-01-10T04:39:30.109Z,1013.26
2019-01-10T04:40:10.712Z,1013.23
2019-01-10T04:40:51.327Z,1013.22
2019-01-10T04:41:31.922Z,1013.28
2019-01-10T04:42:12.545Z,1013.17
2019-01-10T04:42:53.195Z,1013.19
2019-01-10T04:43:33.803Z,1013.1
2019-01-10T04:44:14.407Z,1013.16
2019-01-10T04:44:55.025Z,1013.16
2019-01-10T04:45:35.645Z,1013.19
2019-01-10T04:46:16.249Z,1013.15
2019-01-10T04:46:56.857Z,1013.16
2019-01-10T04:47:37.583Z,1013.21
2019-01-10T04:48:18.091Z,1013.19
2019-01-10T04:48:58.705Z,1013.27
2019-01-10T04:49:39.331Z,1013.28
2019-01-10T04:50:20.016Z,1013.24
2019-01-10T04:51:00.623Z,1013.23
2019-01-10T04:51:41.223Z,1013.24
2019-01-10T04:52:21.827Z,1013.26
2019-01-10T04:53:02.445Z,1013.29
2019-01-10T04:53:43.086Z,1013.27
2019-01-10T04:54:23.733Z,1013.25
2019-01-10T04:55:04.359Z,1013.2
2019-01-10T04:55:44.964Z,1013.25
2019-01-10T04:56:25.564Z,1013.26
2019-01-10T04:57:06.195Z,1013.35
2019-01-10T04:57:46.802Z,1013.28
2019-01-10T04:58:27.413Z,1013.29
2019-01-10T04:59:08.015Z,1013.3
2019-01-10T04:59:48.634Z,1013.28
2019-01-10T05:00:29.279Z,1013.28
2019-01-10T05:01:09.880Z,1013.28
2019-01-10T05:01:50.480Z,1013.33
2019-01-10T05:02:31.086Z,1013.4
2019-01-10T05:03:11.731Z,1013.41
2019-01-10T05:03:52.319Z,1013.38
2019-01-10T05:04:32.919Z,1013.33
2019-01-10T05:05:13.543Z,1013.35
2019-01-10T05:05:54.343Z,1013.33
2019-01-10T05:06:34.963Z,1013.41
2019-01-10T05:07:15.574Z,1013.46
2019-01-10T05:07:56.187Z,1013.48
2019-01-10T05:08:36.789Z,1013.41
2019-01-10T05:09:17.399Z,1013.39
2019-01-10T05:09:58.043Z,1013.29
2019-01-10T05:10:38.650Z,1013.34
2019-01-10T05:11:19.286Z,1013.35
2019-01-10T05:11:59.937Z,1013.43
2019-01-10T05:12:41.794Z,1013.43
2019-01-10T05:13:21.167Z,1013.47
2019-01-10T05:14:01.779Z,1013.45
2019-01-10T05:14:42.422Z,1013.49
2019-01-10T05:15:23.012Z,1013.46
2019-01-10T05:16:03.762Z,1013.42
2019-01-10T05:16:44.366Z,1013.42
2019-01-10T05:17:25.008Z,1013.42
2019-01-10T05:18:08.014Z,1013.39
2019-01-10T05:18:46.270Z,1013.37
2019-01-10T05:19:26.876Z,1013.43
2019-01-10T05:20:07.487Z,1013.44
2019-01-10T05:20:48.111Z,1013.51
2019-01-10T05:21:28.715Z,1013.49
2019-01-10T05:22:09.328Z,1013.47
2019-01-10T05:22:49.954Z,1013.47
2019-01-10T05:23:30.578Z,1013.48
2019-01-10T05:24:11.181Z,1013.4
2019-01-10T05:24:51.800Z,1013.39
2019-01-10T05:25:32.420Z,1013.43
2019-01-10T05:26:13.010Z,1013.42
2019-01-10T05:26:53.623Z,1013.39
2019-01-10T05:27:34.245Z,1013.35
2019-01-10T05:28:14.896Z,1013.34
2019-01-10T05:28:55.519Z,1013.35
2019-01-10T05:29:36.129Z,1013.44
2019-01-10T05:30:16.759Z,1013.36
2019-01-10T05:30:57.445Z,1013.37
2019-01-10T05:31:38.194Z,1013.4
2019-01-10T05:32:18.801Z,1013.51
2019-01-10T05:32:59.439Z,1013.5
2019-01-10T05:33:40.043Z,1013.45
2019-01-10T05:34:20.659Z,1013.5
2019-01-10T05:35:01.290Z,1013.49
2019-01-10T05:35:41.903Z,1013.54
2019-01-10T05:36:22.513Z,1013.43
2019-01-10T05:37:03.137Z,1013.45
2019-01-10T05:37:43.775Z,1013.51
2019-01-10T05:38:24.375Z,1013.49
2019-01-10T05:39:05.033Z,1013.5
2019-01-10T05:39:47.544Z,1013.52
2019-01-10T05:40:26.246Z,1013.54
2019-01-10T05:41:06.879Z,1013.55
2019-01-10T05:41:47.532Z,1013.57
2019-01-10T05:42:28.134Z,1013.63
2019-01-10T05:43:08.748Z,1013.69
2019-01-10T05:43:49.375Z,1013.64
2019-01-10T05:44:29.995Z,1013.66
2019-01-10T05:45:10.716Z,1013.7
2019-01-10T05:45:51.290Z,1013.73
2019-01-10T05:46:31.935Z,1013.7
2019-01-10T05:47:12.537Z,1013.73
2019-01-10T05:47:53.193Z,1013.73
2019-01-10T05:48:33.804Z,1013.79
2019-01-10T05:49:14.441Z,1013.75
2019-01-10T05:49:55.063Z,1013.78
2019-01-10T05:50:35.672Z,1013.7
2019-01-10T05:51:16.296Z,1013.69
2019-01-10T05:51:56.921Z,1013.7
2019-01-10T05:52:37.542Z,1013.69
2019-01-10T05:53:18.146Z,1013.69
2019-01-10T05:53:58.825Z,1013.65
2019-01-10T05:54:39.393Z,1013.7
2019-01-10T05:55:20.024Z,1013.71
2019-01-10T05:56:00.639Z,1013.7
2019-01-10T05:56:41.259Z,1013.69
2019-01-10T05:57:21.879Z,1013.69
2019-01-10T05:58:02.489Z,1013.72
2019-01-10T05:58:44.475Z,1013.67
2019-01-10T05:59:25.183Z,1013.73
2019-01-10T06:00:04.353Z,1013.78
2019-01-10T06:01:59.493Z,1013.8
2019-01-10T06:02:40.101Z,1013.79
2019-01-10T06:03:20.735Z,1013.82
2019-01-10T06:04:01.426Z,1013.78
2019-01-10T06:04:42.017Z,1013.78
2019-01-10T06:05:22.630Z,1013.76
2019-01-10T06:06:03.237Z,1013.74
2019-01-10T06:06:43.852Z,1013.79
2019-01-10T06:07:24.483Z,1013.83
2019-01-10T06:08:05.092Z,1013.8
2019-01-10T06:08:45.683Z,1013.76
2019-01-10T06:09:26.287Z,1013.71
2019-01-10T06:10:06.921Z,1013.75
2019-01-10T06:10:47.542Z,1013.68
2019-01-10T06:11:28.169Z,1013.68
2019-01-10T06:12:08.798Z,1013.68
2019-01-10T06:12:49.427Z,1013.71
2019-01-10T06:13:30.046Z,1013.75
2019-01-10T06:14:10.651Z,1013.67
2019-01-10T06:14:51.236Z,1013.67
2019-01-10T06:15:31.848Z,1013.76
2019-01-10T06:16:12.446Z,1013.71
2019-01-10T06:16:53.066Z,1013.77
2019-01-10T06:17:33.672Z,1013.67
2019-01-10T06:18:14.301Z,1013.7
2019-01-10T06:18:54.898Z,1013.63
2019-01-10T06:19:35.526Z,1013.64
2019-01-10T06:20:16.164Z,1013.53
2019-01-10T06:20:56.765Z,1013.51
2019-01-10T06:21:37.364Z,1013.51
2019-01-10T06:22:17.953Z,1013.51
2019-01-10T06:22:58.568Z,1013.54
2019-01-10T06:23:39.172Z,1013.5
2019-01-10T06:24:19.800Z,1013.49
2019-01-10T06:25:00.456Z,1013.43
2019-01-10T06:25:41.089Z,1013.49
2019-01-10T06:26:21.701Z,1013.46
2019-01-10T06:27:02.322Z,1013.5
2019-01-10T06:27:42.963Z,1013.56
2019-01-10T06:28:23.599Z,1013.58
2019-01-10T06:29:04.242Z,1013.58
2019-01-10T06:29:44.834Z,1013.59
2019-01-10T06:30:25.455Z,1013.6
2019-01-10T06:31:06.086Z,1013.62
2019-01-10T06:31:46.749Z,1013.6
2019-01-10T06:32:27.302Z,1013.62
2019-01-10T06:33:07.909Z,1013.72
2019-01-10T06:33:48.528Z,1013.61
2019-01-10T06:34:29.176Z,1013.57
2019-01-10T06:35:09.783Z,1013.61
2019-01-10T06:35:50.477Z,1013.56
2019-01-10T06:36:31.017Z,1013.73
2019-01-10T06:37:11.615Z,1013.62
2019-01-10T06:37:52.213Z,1013.62
2019-01-10T06:38:32.857Z,1013.56
2019-01-10T06:39:13.477Z,1013.6
2019-01-10T06:39:54.165Z,1013.61
2019-01-10T06:40:34.755Z,1013.66
2019-01-10T06:41:16.944Z,1013.68
2019-01-10T06:41:55.986Z,1013.66
2019-01-10T06:42:36.593Z,1013.66
2019-01-10T06:43:17.219Z,1013.66
2019-01-10T06:43:57.803Z,1013.69
2019-01-10T06:44:44.446Z,1013.68
2019-01-10T06:45:19.063Z,1013.71
2019-01-10T06:45:59.701Z,1013.64
2019-01-10T06:46:40.320Z,1013.62
2019-01-10T06:47:20.937Z,1013.5
2019-01-10T06:48:01.543Z,1013.6
2019-01-10T06:48:42.180Z,1013.65
2019-01-10T06:49:22.797Z,1013.62
2019-01-10T06:50:03.441Z,1013.7
2019-01-10T06:50:44.065Z,1013.63
2019-01-10T06:51:24.677Z,1013.55
2019-01-10T06:52:05.306Z,1013.72
2019-01-10T06:52:45.936Z,1013.65
2019-01-10T06:53:26.547Z,1013.67
2019-01-10T06:54:07.161Z,1013.82
2019-01-10T06:54:56.251Z,1013.77
2019-01-10T06:55:28.387Z,1013.8
2019-01-10T06:56:09.018Z,1013.85
2019-01-10T06:56:49.635Z,1013.83
2019-01-10T06:57:30.231Z,1013.82
2019-01-10T06:58:10.841Z,1013.77
2019-01-10T06:58:51.445Z,1013.87
2019-01-10T06:59:32.085Z,1013.9
2019-01-10T07:00:12.698Z,1013.91
2019-01-10T07:00:53.318Z,1013.93
2019-01-10T07:01:33.941Z,1013.97
2019-01-10T07:02:14.559Z,1013.93
2019-01-10T07:02:55.172Z,1013.87
2019-01-10T07:03:35.765Z,1013.9
2019-01-10T07:04:16.407Z,1013.97
2019-01-10T07:04:57.009Z,1014
2019-01-10T07:05:37.625Z,1014.01
2019-01-10T07:06:18.246Z,1013.99
2019-01-10T07:06:58.873Z,1014.08
2019-01-10T07:07:39.487Z,1014.08
2019-01-10T07:08:20.101Z,1014.15
2019-01-10T07:09:00.687Z,1014.12
2019-01-10T07:09:41.291Z,1014.08
2019-01-10T07:10:21.905Z,1014.15
2019-01-10T07:11:02.532Z,1014.2
2019-01-10T07:11:43.178Z,1014.2
2019-01-10T07:12:23.800Z,1014.22
2019-01-10T07:13:04.430Z,1014.24
2019-01-10T07:13:45.027Z,1014.22
2019-01-10T07:14:25.647Z,1014.2
2019-01-10T07:15:06.281Z,1014.33
2019-01-10T07:15:46.853Z,1014.21
2019-01-10T07:16:27.471Z,1014.34
2019-01-10T07:17:08.137Z,1014.4
2019-01-10T07:17:48.715Z,1014.41
2019-01-10T07:18:29.360Z,1014.42
2019-01-10T07:19:10.081Z,1014.48
2019-01-10T07:19:50.640Z,1014.5
2019-01-10T07:20:31.259Z,1014.53
2019-01-10T07:21:11.863Z,1014.59
2019-01-10T07:21:52.479Z,1014.63
2019-01-10T07:22:33.082Z,1014.61
2019-01-10T07:23:13.698Z,1014.53
2019-01-10T07:23:54.344Z,1014.65
2019-01-10T07:24:34.941Z,1014.63
2019-01-10T07:25:15.581Z,1014.68
2019-01-10T07:25:56.184Z,1014.75
2019-01-10T07:26:36.785Z,1014.73
2019-01-10T07:27:17.391Z,1014.73
2019-01-10T07:27:58.005Z,1014.77
2019-01-10T07:28:38.637Z,1014.79
2019-01-10T07:29:19.259Z,1014.82
2019-01-10T07:29:59.921Z,1014.81
2019-01-10T07:30:40.472Z,1014.82
2019-01-10T07:31:21.076Z,1014.79
2019-01-10T07:32:01.687Z,1014.76
2019-01-10T07:32:42.291Z,1014.83
2019-01-10T07:33:22.901Z,1014.76
2019-01-10T07:34:03.539Z,1014.81
2019-01-10T07:34:44.227Z,1014.81
2019-01-10T07:35:25.712Z,1014.86
2019-01-10T07:36:05.474Z,1014.79
2019-01-10T07:36:46.138Z,1014.88
2019-01-10T07:37:26.955Z,1014.93
2019-01-10T07:38:07.589Z,1014.93
2019-01-10T07:38:48.251Z,1014.99
2019-01-10T07:39:28.867Z,1015
2019-01-10T07:40:09.534Z,1014.99
2019-01-10T07:40:50.155Z,1015.02
2019-01-10T07:41:30.788Z,1015.03
2019-01-10T07:42:11.382Z,1015.05
2019-01-10T07:42:52.013Z,1015.04
2019-01-10T07:43:32.644Z,1015.1
2019-01-10T07:44:13.260Z,1015.07
2019-01-10T07:45:02.432Z,1015.06
2019-01-10T07:45:34.475Z,1015.09
2019-01-10T07:46:15.103Z,1015.11
2019-01-10T07:46:55.845Z,1015.13
2019-01-10T07:47:36.475Z,1015.1
2019-01-10T07:48:17.086Z,1015.13
2019-01-10T07:48:57.698Z,1015.19
2019-01-10T07:49:38.314Z,1015.14
2019-01-10T07:50:18.920Z,1015.17
2019-01-10T07:50:59.558Z,1015.11
2019-01-10T07:51:40.172Z,1015.08
2019-01-10T07:52:20.758Z,1015.1
2019-01-10T07:53:01.430Z,1015.13
2019-01-10T07:53:42.037Z,1015.1
2019-01-10T07:54:22.663Z,1015.14
2019-01-10T07:55:03.286Z,1015.15
2019-01-10T07:55:43.903Z,1015.19
2019-01-10T07:56:24.568Z,1015.19
2019-01-10T07:57:05.186Z,1015.18
2019-01-10T07:57:45.836Z,1015.25
2019-01-10T07:58:26.455Z,1015.28
2019-01-10T07:59:07.096Z,1015.33
2019-01-10T07:59:47.727Z,1015.39
2019-01-10T08:00:28.358Z,1015.29
2019-01-10T08:01:08.965Z,1015.34
2019-01-10T08:01:49.571Z,1015.35
2019-01-10T08:02:30.177Z,1015.42
2019-01-10T08:03:10.801Z,1015.39
2019-01-10T08:03:51.420Z,1015.36
2019-01-10T08:04:32.047Z,1015.49
2019-01-10T08:05:12.673Z,1015.41
2019-01-10T08:05:53.273Z,1015.34
2019-01-10T08:06:33.878Z,1015.43
2019-01-10T08:07:14.514Z,1015.47
2019-01-10T08:07:55.185Z,1015.44
2019-01-10T08:08:35.723Z,1015.45
2019-01-10T08:09:16.328Z,1015.45
2019-01-10T08:09:57.127Z,1015.39
2019-01-10T08:10:37.713Z,1015.39
2019-01-10T08:11:19.496Z,1015.44
2019-01-10T08:12:00.462Z,1015.54
2019-01-10T08:12:39.557Z,1015.57
2019-01-10T08:13:20.172Z,1015.57
2019-01-10T08:14:00.905Z,1015.55
2019-01-10T08:14:41.609Z,1015.46